sensor_id;sensor_type;location;lat;lon;timestamp;pressure;altitude;pressure_sealevel;temperature;humidity
70127;BME280;57491;42.694;23.314;2024-03-23T00:54:47;95183.50;;;8.98;50.39
70127;BME280;57491;42.694;23.314;2024-03-23T00:57:15;95178.38;;;8.82;49.42
70127;BME280;57491;42.694;23.314;2024-03-23T00:59:41;95173.38;;;8.64;50.77
70127;BME280;57491;42.694;23.314;2024-03-23T01:02:08;95180.34;;;8.47;50.80
70127;BME280;57491;42.694;23.314;2024-03-23T01:04:35;95171.28;;;8.43;51.91
70127;BME280;57491;42.694;23.314;2024-03-23T01:07:02;95182.63;;;8.34;51.36
70127;BME280;57491;42.694;23.314;2024-03-23T01:09:30;95175.50;;;8.28;51.89
70127;BME280;57491;42.694;23.314;2024-03-23T01:11:57;95171.91;;;8.21;51.92
70127;BME280;57491;42.694;23.314;2024-03-23T01:14:23;95164.28;;;8.20;53.55
70127;BME280;57491;42.694;23.314;2024-03-23T01:16:50;95164.31;;;8.28;55.00
70127;BME280;57491;42.694;23.314;2024-03-23T01:19:17;95148.59;;;8.21;53.29
70127;BME280;57491;42.694;23.314;2024-03-23T01:21:44;95168.06;;;8.33;53.10
70127;BME280;57491;42.694;23.314;2024-03-23T01:24:11;95178.09;;;8.36;53.82
70127;BME280;57491;42.694;23.314;2024-03-23T01:26:40;95167.06;;;8.26;52.14
70127;BME280;57491;42.694;23.314;2024-03-23T01:29:06;95176.47;;;8.19;52.15
70127;BME280;57491;42.694;23.314;2024-03-23T01:31:33;95178.06;;;8.12;52.61
70127;BME280;57491;42.694;23.314;2024-03-23T01:33:59;95170.09;;;7.89;51.93
70127;BME280;57491;42.694;23.314;2024-03-23T01:36:26;95170.44;;;7.78;53.15
70127;BME280;57491;42.694;23.314;2024-03-23T01:38:53;95167.50;;;7.73;53.17
70127;BME280;57491;42.694;23.314;2024-03-23T01:41:20;95162.16;;;7.67;52.67
70127;BME280;57491;42.694;23.314;2024-03-23T01:43:48;95170.88;;;7.66;53.54
70127;BME280;57491;42.694;23.314;2024-03-23T01:46:15;95169.56;;;7.61;53.07
70127;BME280;57491;42.694;23.314;2024-03-23T01:48:42;95169.56;;;7.61;53.17
70127;BME280;57491;42.694;23.314;2024-03-23T01:51:10;95174.75;;;7.61;53.18
70127;BME280;57491;42.694;23.314;2024-03-23T01:53:37;95175.38;;;7.47;53.29
70127;BME280;57491;42.694;23.314;2024-03-23T01:56:05;95169.53;;;7.37;53.53
70127;BME280;57491;42.694;23.314;2024-03-23T01:58:33;95167.88;;;7.28;53.84
70127;BME280;57491;42.694;23.314;2024-03-23T02:01:03;95163.16;;;7.15;54.06
70127;BME280;57491;42.694;23.314;2024-03-23T02:03:30;95166.38;;;7.17;54.25
70127;BME280;57491;42.694;23.314;2024-03-23T02:05:57;95166.47;;;7.08;54.10
70127;BME280;57491;42.694;23.314;2024-03-23T02:08:24;95174.72;;;7.03;54.57
70127;BME280;57491;42.694;23.314;2024-03-23T02:10:51;95165.59;;;6.91;54.58
70127;BME280;57491;42.694;23.314;2024-03-23T02:13:18;95175.28;;;6.89;55.22
70127;BME280;57491;42.694;23.314;2024-03-23T02:15:45;95174.31;;;6.90;55.17
70127;BME280;57491;42.694;23.314;2024-03-23T02:18:13;95168.25;;;6.73;55.06
70127;BME280;57491;42.694;23.314;2024-03-23T02:20:40;95166.78;;;6.71;55.95
70127;BME280;57491;42.694;23.314;2024-03-23T02:23:14;95176.97;;;6.72;55.66
70127;BME280;57491;42.694;23.314;2024-03-23T02:25:42;95181.31;;;6.72;56.21
70127;BME280;57491;42.694;23.314;2024-03-23T02:28:08;95184.09;;;6.70;55.65
70127;BME280;57491;42.694;23.314;2024-03-23T02:30:36;95181.28;;;6.64;56.52
70127;BME280;57491;42.694;23.314;2024-03-23T02:33:03;95185.31;;;6.66;56.13
70127;BME280;57491;42.694;23.314;2024-03-23T02:35:30;95186.09;;;6.59;55.94
70127;BME280;57491;42.694;23.314;2024-03-23T02:37:56;95192.34;;;6.48;56.23
70127;BME280;57491;42.694;23.314;2024-03-23T02:40:25;95175.16;;;6.39;56.39
70127;BME280;57491;42.694;23.314;2024-03-23T02:42:52;95174.47;;;6.37;56.98
70127;BME280;57491;42.694;23.314;2024-03-23T02:45:19;95167.06;;;6.34;56.88
70127;BME280;57491;42.694;23.314;2024-03-23T02:47:46;95179.16;;;6.34;56.64
70127;BME280;57491;42.694;23.314;2024-03-23T02:50:18;95176.50;;;6.25;56.88
70127;BME280;57491;42.694;23.314;2024-03-23T02:52:44;95172.44;;;6.23;57.26
70127;BME280;57491;42.694;23.314;2024-03-23T02:55:11;95173.38;;;6.22;56.98
70127;BME280;57491;42.694;23.314;2024-03-23T02:57:39;95179.09;;;6.25;57.72
70127;BME280;57491;42.694;23.314;2024-03-23T03:00:07;95161.16;;;6.24;58.45
70127;BME280;57491;42.694;23.314;2024-03-23T03:02:33;95173.06;;;6.43;58.47
70127;BME280;57491;42.694;23.314;2024-03-23T03:05:01;95169.38;;;6.45;56.82
70127;BME280;57491;42.694;23.314;2024-03-23T03:07:27;95168.78;;;6.51;57.57
70127;BME280;57491;42.694;23.314;2024-03-23T03:09:54;95171.72;;;6.56;57.62
70127;BME280;57491;42.694;23.314;2024-03-23T03:12:21;95167.56;;;6.63;57.70
70127;BME280;57491;42.694;23.314;2024-03-23T03:14:49;95172.41;;;6.66;57.81
70127;BME280;57491;42.694;23.314;2024-03-23T03:17:16;95177.56;;;6.66;57.85
70127;BME280;57491;42.694;23.314;2024-03-23T03:19:45;95158.69;;;6.66;57.01
70127;BME280;57491;42.694;23.314;2024-03-23T03:22:11;95171.81;;;6.72;56.65
70127;BME280;57491;42.694;23.314;2024-03-23T03:24:38;95160.47;;;6.65;57.32
70127;BME280;57491;42.694;23.314;2024-03-23T03:27:05;95180.22;;;6.75;56.24
70127;BME280;57491;42.694;23.314;2024-03-23T03:29:32;95178.56;;;6.65;57.27
70127;BME280;57491;42.694;23.314;2024-03-23T03:32:03;95183.56;;;6.67;58.22
70127;BME280;57491;42.694;23.314;2024-03-23T03:34:30;95175.34;;;6.71;58.23
70127;BME280;57491;42.694;23.314;2024-03-23T03:36:57;95174.44;;;6.81;56.41
70127;BME280;57491;42.694;23.314;2024-03-23T03:39:25;95176.97;;;6.72;56.56
70127;BME280;57491;42.694;23.314;2024-03-23T03:41:52;95171.50;;;6.76;55.99
70127;BME280;57491;42.694;23.314;2024-03-23T03:44:19;95161.78;;;6.69;57.98
70127;BME280;57491;42.694;23.314;2024-03-23T03:46:46;95154.78;;;6.62;57.40
70127;BME280;57491;42.694;23.314;2024-03-23T03:49:14;95183.94;;;6.80;57.01
70127;BME280;57491;42.694;23.314;2024-03-23T03:51:40;95182.34;;;6.79;56.36
70127;BME280;57491;42.694;23.314;2024-03-23T03:54:08;95162.34;;;6.55;57.63
70127;BME280;57491;42.694;23.314;2024-03-23T03:56:34;95184.38;;;6.67;57.60
70127;BME280;57491;42.694;23.314;2024-03-23T03:59:01;95177.56;;;6.66;57.29
70127;BME280;57491;42.694;23.314;2024-03-23T04:01:28;95174.69;;;6.69;58.52
70127;BME280;57491;42.694;23.314;2024-03-23T04:03:55;95174.94;;;6.58;58.86
70127;BME280;57491;42.694;23.314;2024-03-23T04:06:22;95143.00;;;6.34;57.73
70127;BME280;57491;42.694;23.314;2024-03-23T04:08:50;95181.09;;;6.57;58.58
70127;BME280;57491;42.694;23.314;2024-03-23T04:11:16;95185.44;;;6.57;58.32
70127;BME280;57491;42.694;23.314;2024-03-23T04:13:44;95186.72;;;6.53;57.76
70127;BME280;57491;42.694;23.314;2024-03-23T04:16:11;95183.78;;;6.48;58.34
70127;BME280;57491;42.694;23.314;2024-03-23T04:18:38;95185.69;;;6.46;57.77
70127;BME280;57491;42.694;23.314;2024-03-23T04:21:04;95174.75;;;6.52;59.38
70127;BME280;57491;42.694;23.314;2024-03-23T04:23:33;95188.84;;;6.57;58.69
70127;BME280;57491;42.694;23.314;2024-03-23T04:26:03;95186.59;;;6.62;59.53
70127;BME280;57491;42.694;23.314;2024-03-23T04:28:31;95193.69;;;6.60;59.06
70127;BME280;57491;42.694;23.314;2024-03-23T04:30:57;95180.41;;;6.55;56.74
70127;BME280;57491;42.694;23.314;2024-03-23T04:33:24;95188.53;;;6.60;56.78
70127;BME280;57491;42.694;23.314;2024-03-23T04:35:51;95179.47;;;6.56;58.25
70127;BME280;57491;42.694;23.314;2024-03-23T04:38:18;95184.00;;;6.62;57.59
70127;BME280;57491;42.694;23.314;2024-03-23T04:40:54;95193.38;;;6.63;57.49
70127;BME280;57491;42.694;23.314;2024-03-23T04:43:21;95195.66;;;6.66;57.21
70127;BME280;57491;42.694;23.314;2024-03-23T04:45:48;95200.22;;;6.72;58.52
70127;BME280;57491;42.694;23.314;2024-03-23T04:48:16;95186.25;;;6.57;57.00
70127;BME280;57491;42.694;23.314;2024-03-23T04:50:43;95192.47;;;6.72;57.53
70127;BME280;57491;42.694;23.314;2024-03-23T04:53:10;95192.84;;;6.78;57.96
70127;BME280;57491;42.694;23.314;2024-03-23T04:55:37;95202.22;;;6.79;56.92
70127;BME280;57491;42.694;23.314;2024-03-23T04:58:06;95195.09;;;6.81;55.70
70127;BME280;57491;42.694;23.314;2024-03-23T05:00:32;95211.41;;;6.81;55.36
70127;BME280;57491;42.694;23.314;2024-03-23T05:03:00;95209.88;;;6.88;54.93
70127;BME280;57491;42.694;23.314;2024-03-23T05:05:26;95205.22;;;7.00;56.48
70127;BME280;57491;42.694;23.314;2024-03-23T05:07:53;95198.75;;;6.96;54.44
70127;BME280;57491;42.694;23.314;2024-03-23T05:10:19;95199.06;;;6.93;55.23
70127;BME280;57491;42.694;23.314;2024-03-23T05:12:47;95201.66;;;6.93;54.01
70127;BME280;57491;42.694;23.314;2024-03-23T05:15:15;95194.78;;;7.09;54.93
70127;BME280;57491;42.694;23.314;2024-03-23T05:17:42;95194.81;;;7.17;53.88
70127;BME280;57491;42.694;23.314;2024-03-23T05:20:09;95159.38;;;7.02;53.13
70127;BME280;57491;42.694;23.314;2024-03-23T05:22:38;95189.53;;;7.35;53.72
70127;BME280;57491;42.694;23.314;2024-03-23T05:25:05;95189.91;;;7.48;53.21
70127;BME280;57491;42.694;23.314;2024-03-23T05:27:33;95185.41;;;7.58;54.07
70127;BME280;57491;42.694;23.314;2024-03-23T05:29:59;95191.13;;;7.78;52.92
70127;BME280;57491;42.694;23.314;2024-03-23T05:32:28;95175.28;;;7.81;51.86
70127;BME280;57491;42.694;23.314;2024-03-23T05:34:54;95185.81;;;7.88;51.55
70127;BME280;57491;42.694;23.314;2024-03-23T05:37:22;95172.69;;;7.73;51.68
70127;BME280;57491;42.694;23.314;2024-03-23T05:39:49;95201.66;;;7.85;51.74
70127;BME280;57491;42.694;23.314;2024-03-23T05:42:16;95184.88;;;7.97;51.16
70127;BME280;57491;42.694;23.314;2024-03-23T05:44:43;95197.81;;;7.97;51.76
70127;BME280;57491;42.694;23.314;2024-03-23T05:47:11;95195.84;;;8.07;51.39
70127;BME280;57491;42.694;23.314;2024-03-23T05:49:40;95195.56;;;8.42;50.64
70127;BME280;57491;42.694;23.314;2024-03-23T05:52:08;95199.47;;;8.55;50.72
70127;BME280;57491;42.694;23.314;2024-03-23T05:54:35;95193.94;;;8.66;48.83
70127;BME280;57491;42.694;23.314;2024-03-23T05:57:02;95200.44;;;8.78;49.87
70127;BME280;57491;42.694;23.314;2024-03-23T05:59:29;95172.88;;;8.77;48.54
70127;BME280;57491;42.694;23.314;2024-03-23T06:01:56;95196.13;;;9.09;47.55
70127;BME280;57491;42.694;23.314;2024-03-23T06:04:23;95177.63;;;9.12;47.47
70127;BME280;57491;42.694;23.314;2024-03-23T06:06:51;95195.00;;;9.04;48.42
70127;BME280;57491;42.694;23.314;2024-03-23T06:09:18;95186.28;;;9.44;47.96
70127;BME280;57491;42.694;23.314;2024-03-23T06:11:45;95194.53;;;9.47;46.50
70127;BME280;57491;42.694;23.314;2024-03-23T06:14:12;95190.97;;;9.79;46.64
70127;BME280;57491;42.694;23.314;2024-03-23T06:16:40;95186.72;;;9.86;45.77
70127;BME280;57491;42.694;23.314;2024-03-23T06:19:07;95192.38;;;10.12;45.15
70127;BME280;57491;42.694;23.314;2024-03-23T06:21:34;95164.44;;;10.14;44.27
70127;BME280;57491;42.694;23.314;2024-03-23T06:24:02;95167.94;;;10.29;44.58
70127;BME280;57491;42.694;23.314;2024-03-23T06:26:29;95182.47;;;10.39;44.50
70127;BME280;57491;42.694;23.314;2024-03-23T06:28:55;95179.31;;;10.66;44.01
70127;BME280;57491;42.694;23.314;2024-03-23T06:31:23;95170.53;;;10.67;43.53
70127;BME280;57491;42.694;23.314;2024-03-23T06:33:49;95186.81;;;10.98;42.80
70127;BME280;57491;42.694;23.314;2024-03-23T06:36:16;95182.94;;;11.09;42.65
70127;BME280;57491;42.694;23.314;2024-03-23T06:38:45;95174.59;;;11.28;42.23
70127;BME280;57491;42.694;23.314;2024-03-23T06:41:14;95180.22;;;11.46;41.15
70127;BME280;57491;42.694;23.314;2024-03-23T06:43:40;95177.53;;;11.40;41.40
70127;BME280;57491;42.694;23.314;2024-03-23T06:46:07;95189.00;;;11.60;41.21
70127;BME280;57491;42.694;23.314;2024-03-23T06:48:34;95177.88;;;11.66;41.20
70127;BME280;57491;42.694;23.314;2024-03-23T06:51:01;95178.63;;;11.96;41.76
70127;BME280;57491;42.694;23.314;2024-03-23T06:53:27;95176.47;;;12.21;39.61
70127;BME280;57491;42.694;23.314;2024-03-23T06:55:55;95185.66;;;12.38;39.46
70127;BME280;57491;42.694;23.314;2024-03-23T06:58:24;95184.22;;;12.35;39.43
70127;BME280;57491;42.694;23.314;2024-03-23T07:00:52;95183.34;;;12.49;39.83
70127;BME280;57491;42.694;23.314;2024-03-23T07:03:18;95176.94;;;12.73;39.31
70127;BME280;57491;42.694;23.314;2024-03-23T07:05:46;95166.78;;;12.85;38.46
70127;BME280;57491;42.694;23.314;2024-03-23T07:08:12;95164.41;;;13.18;38.48
70127;BME280;57491;42.694;23.314;2024-03-23T07:10:44;95149.22;;;13.34;37.96
70127;BME280;57491;42.694;23.314;2024-03-23T07:13:13;95164.38;;;13.52;37.61
70127;BME280;57491;42.694;23.314;2024-03-23T07:15:42;95156.06;;;13.42;36.65
70127;BME280;57491;42.694;23.314;2024-03-23T07:18:09;95158.97;;;13.60;36.66
70127;BME280;57491;42.694;23.314;2024-03-23T07:20:36;95161.63;;;13.73;37.09
70127;BME280;57491;42.694;23.314;2024-03-23T07:23:03;95141.78;;;13.85;36.37
70127;BME280;57491;42.694;23.314;2024-03-23T07:25:31;95137.81;;;14.09;35.42
70127;BME280;57491;42.694;23.314;2024-03-23T07:27:57;95151.72;;;14.29;35.96
70127;BME280;57491;42.694;23.314;2024-03-23T07:30:25;95149.94;;;14.43;34.96
70127;BME280;57491;42.694;23.314;2024-03-23T07:32:52;95148.34;;;14.55;35.18
70127;BME280;57491;42.694;23.314;2024-03-23T07:35:20;95143.94;;;14.62;34.93
70127;BME280;57491;42.694;23.314;2024-03-23T07:37:46;95141.09;;;14.84;35.14
70127;BME280;57491;42.694;23.314;2024-03-23T07:40:14;95143.88;;;15.02;34.38
70127;BME280;57491;42.694;23.314;2024-03-23T07:42:40;95145.84;;;15.26;34.08
70127;BME280;57491;42.694;23.314;2024-03-23T07:45:08;95137.16;;;15.32;33.43
70127;BME280;57491;42.694;23.314;2024-03-23T07:47:35;95138.53;;;15.48;33.41
70127;BME280;57491;42.694;23.314;2024-03-23T07:50:04;95143.31;;;15.71;32.91
70127;BME280;57491;42.694;23.314;2024-03-23T07:52:31;95138.28;;;15.62;33.04
70127;BME280;57491;42.694;23.314;2024-03-23T07:54:58;95130.59;;;15.68;32.93
70127;BME280;57491;42.694;23.314;2024-03-23T07:57:25;95136.75;;;15.86;32.85
70127;BME280;57491;42.694;23.314;2024-03-23T07:59:52;95133.03;;;16.07;32.52
70127;BME280;57491;42.694;23.314;2024-03-23T08:02:18;95133.97;;;16.44;31.87
70127;BME280;57491;42.694;23.314;2024-03-23T08:04:45;95139.63;;;16.47;31.79
70127;BME280;57491;42.694;23.314;2024-03-23T08:07:13;95125.28;;;16.75;31.43
70127;BME280;57491;42.694;23.314;2024-03-23T08:09:40;95126.50;;;16.97;30.69
70127;BME280;57491;42.694;23.314;2024-03-23T08:12:08;95126.94;;;17.12;30.11
70127;BME280;57491;42.694;23.314;2024-03-23T08:14:34;95122.03;;;17.16;30.25
70127;BME280;57491;42.694;23.314;2024-03-23T08:17:01;95121.41;;;17.38;29.70
70127;BME280;57491;42.694;23.314;2024-03-23T08:19:28;95117.69;;;17.46;30.00
70127;BME280;57491;42.694;23.314;2024-03-23T08:21:55;95127.88;;;17.91;29.69
70127;BME280;57491;42.694;23.314;2024-03-23T08:24:23;95118.19;;;18.03;29.33
70127;BME280;57491;42.694;23.314;2024-03-23T08:26:50;95114.00;;;18.13;29.19
70127;BME280;57491;42.694;23.314;2024-03-23T08:29:16;95114.63;;;18.39;30.53
70127;BME280;57491;42.694;23.314;2024-03-23T08:31:44;95105.66;;;18.58;28.70
70127;BME280;57491;42.694;23.314;2024-03-23T08:34:10;95111.97;;;18.92;28.32
70127;BME280;57491;42.694;23.314;2024-03-23T08:36:37;95111.50;;;19.06;28.06
70127;BME280;57491;42.694;23.314;2024-03-23T08:39:03;95105.75;;;19.33;27.30
70127;BME280;57491;42.694;23.314;2024-03-23T08:41:32;95093.81;;;19.42;27.70
70127;BME280;57491;42.694;23.314;2024-03-23T08:43:59;95100.00;;;19.87;27.08
70127;BME280;57491;42.694;23.314;2024-03-23T08:46:26;95088.44;;;19.88;26.77
70127;BME280;57491;42.694;23.314;2024-03-23T08:48:53;95085.78;;;19.88;26.58
70127;BME280;57491;42.694;23.314;2024-03-23T08:51:20;95076.28;;;20.04;27.06
70127;BME280;57491;42.694;23.314;2024-03-23T08:53:46;95083.97;;;20.05;26.38
70127;BME280;57491;42.694;23.314;2024-03-23T08:56:14;95079.78;;;20.21;26.62
70127;BME280;57491;42.694;23.314;2024-03-23T08:58:41;95079.72;;;20.49;26.02
70127;BME280;57491;42.694;23.314;2024-03-23T09:01:10;95076.22;;;20.44;25.58
70127;BME280;57491;42.694;23.314;2024-03-23T09:03:37;95056.47;;;20.46;25.47
70127;BME280;57491;42.694;23.314;2024-03-23T09:06:07;95067.88;;;20.85;25.49
70127;BME280;57491;42.694;23.314;2024-03-23T09:08:33;95060.78;;;21.24;25.38
70127;BME280;57491;42.694;23.314;2024-03-23T09:11:04;95057.94;;;21.53;24.98
70127;BME280;57491;42.694;23.314;2024-03-23T09:13:33;95045.69;;;21.68;24.45
70127;BME280;57491;42.694;23.314;2024-03-23T09:16:05;95050.31;;;22.05;24.03
70127;BME280;57491;42.694;23.314;2024-03-23T09:18:33;95039.47;;;22.38;23.99
70127;BME280;57491;42.694;23.314;2024-03-23T09:21:01;95032.22;;;22.55;23.35
70127;BME280;57491;42.694;23.314;2024-03-23T09:23:29;95032.72;;;22.52;22.80
70127;BME280;57491;42.694;23.314;2024-03-23T09:25:56;95036.53;;;22.66;22.91
70127;BME280;57491;42.694;23.314;2024-03-23T09:28:22;95028.88;;;22.70;22.58
70127;BME280;57491;42.694;23.314;2024-03-23T09:30:49;95017.03;;;22.78;22.53
70127;BME280;57491;42.694;23.314;2024-03-23T09:33:17;95013.56;;;22.77;22.76
70127;BME280;57491;42.694;23.314;2024-03-23T09:35:45;95019.94;;;22.44;22.64
70127;BME280;57491;42.694;23.314;2024-03-23T09:38:11;95006.66;;;22.39;23.39
70127;BME280;57491;42.694;23.314;2024-03-23T09:40:40;95002.84;;;23.04;22.69
70127;BME280;57491;42.694;23.314;2024-03-23T09:43:08;95002.81;;;23.56;21.85
70127;BME280;57491;42.694;23.314;2024-03-23T09:45:38;94999.94;;;23.68;21.40
70127;BME280;57491;42.694;23.314;2024-03-23T09:48:06;94979.09;;;23.29;21.86
70127;BME280;57491;42.694;23.314;2024-03-23T09:50:36;94992.84;;;23.21;21.89
70127;BME280;57491;42.694;23.314;2024-03-23T09:53:02;94989.66;;;23.24;22.23
70127;BME280;57491;42.694;23.314;2024-03-23T09:55:29;94988.53;;;23.72;21.72
70127;BME280;57491;42.694;23.314;2024-03-23T09:57:56;94986.88;;;23.51;21.23
70127;BME280;57491;42.694;23.314;2024-03-23T10:00:23;94976.56;;;23.65;21.22
70127;BME280;57491;42.694;23.314;2024-03-23T10:02:49;94977.47;;;24.26;20.46
70127;BME280;57491;42.694;23.314;2024-03-23T10:05:20;94971.59;;;24.49;20.84
70127;BME280;57491;42.694;23.314;2024-03-23T10:07:49;94959.53;;;25.02;20.44
70127;BME280;57491;42.694;23.314;2024-03-23T10:10:17;94957.56;;;25.28;20.49
70127;BME280;57491;42.694;23.314;2024-03-23T10:12:47;94952.19;;;25.43;20.07
70127;BME280;57491;42.694;23.314;2024-03-23T10:15:21;94954.50;;;25.99;19.72
70127;BME280;57491;42.694;23.314;2024-03-23T10:17:48;94958.28;;;26.32;18.87
70127;BME280;57491;42.694;23.314;2024-03-23T10:20:18;94949.53;;;26.55;18.84
70127;BME280;57491;42.694;23.314;2024-03-23T10:22:45;94938.91;;;26.50;18.56
70127;BME280;57491;42.694;23.314;2024-03-23T10:25:14;94941.63;;;26.97;18.08
70127;BME280;57491;42.694;23.314;2024-03-23T10:27:41;94937.72;;;27.56;17.95
70127;BME280;57491;42.694;23.314;2024-03-23T10:30:10;94930.44;;;27.62;17.57
70127;BME280;57491;42.694;23.314;2024-03-23T10:32:38;94929.81;;;27.51;17.24
70127;BME280;57491;42.694;23.314;2024-03-23T10:35:15;94920.03;;;27.79;17.52
70127;BME280;57491;42.694;23.314;2024-03-23T10:37:41;94913.78;;;28.21;16.82
70127;BME280;57491;42.694;23.314;2024-03-23T10:40:11;94912.44;;;28.37;17.20
70127;BME280;57491;42.694;23.314;2024-03-23T10:42:40;94903.75;;;28.45;16.63
70127;BME280;57491;42.694;23.314;2024-03-23T10:45:08;94900.50;;;28.62;16.20
70127;BME280;57491;42.694;23.314;2024-03-23T10:47:34;94890.81;;;29.07;16.49
70127;BME280;57491;42.694;23.314;2024-03-23T10:50:03;94889.00;;;29.43;16.20
70127;BME280;57491;42.694;23.314;2024-03-23T10:52:31;94878.38;;;29.52;15.48
70127;BME280;57491;42.694;23.314;2024-03-23T10:54:59;94872.59;;;29.58;15.57
70127;BME280;57491;42.694;23.314;2024-03-23T10:57:30;94867.84;;;29.78;15.08
70127;BME280;57491;42.694;23.314;2024-03-23T11:00:04;94861.06;;;29.94;15.37
70127;BME280;57491;42.694;23.314;2024-03-23T11:02:31;94862.66;;;29.81;15.07
70127;BME280;57491;42.694;23.314;2024-03-23T11:04:58;94854.41;;;29.91;15.17
70127;BME280;57491;42.694;23.314;2024-03-23T11:07:31;94851.63;;;29.60;15.21
70127;BME280;57491;42.694;23.314;2024-03-23T11:09:59;94836.88;;;29.63;15.23
70127;BME280;57491;42.694;23.314;2024-03-23T11:12:26;94831.13;;;29.06;15.43
70127;BME280;57491;42.694;23.314;2024-03-23T11:14:55;94832.53;;;29.53;15.43
70127;BME280;57491;42.694;23.314;2024-03-23T11:17:25;94813.28;;;29.96;15.02
70127;BME280;57491;42.694;23.314;2024-03-23T11:19:53;94819.94;;;30.29;15.51
70127;BME280;57491;42.694;23.314;2024-03-23T11:22:38;94814.50;;;30.91;14.29
70127;BME280;57491;42.694;23.314;2024-03-23T11:25:19;94812.81;;;31.21;14.40
70127;BME280;57491;42.694;23.314;2024-03-23T11:27:48;94807.16;;;31.31;13.95
70127;BME280;57491;42.694;23.314;2024-03-23T11:30:16;94805.91;;;31.63;14.31
70127;BME280;57491;42.694;23.314;2024-03-23T11:32:46;94797.78;;;32.14;13.72
70127;BME280;57491;42.694;23.314;2024-03-23T11:35:31;94795.09;;;32.52;13.62
70127;BME280;57491;42.694;23.314;2024-03-23T11:38:03;94785.69;;;32.75;13.05
70127;BME280;57491;42.694;23.314;2024-03-23T11:40:30;94789.19;;;32.29;13.12
70127;BME280;57491;42.694;23.314;2024-03-23T11:42:58;94779.66;;;31.68;13.55
70127;BME280;57491;42.694;23.314;2024-03-23T11:45:24;94774.16;;;31.65;13.62
70127;BME280;57491;42.694;23.314;2024-03-23T11:48:04;94769.44;;;32.17;13.04
70127;BME280;57491;42.694;23.314;2024-03-23T11:50:31;94761.09;;;32.01;13.63
70127;BME280;57491;42.694;23.314;2024-03-23T11:53:15;94748.50;;;32.69;12.71
70127;BME280;57491;42.694;23.314;2024-03-23T11:55:45;94725.16;;;33.02;12.20
70127;BME280;57491;42.694;23.314;2024-03-23T11:58:13;94731.84;;;33.38;12.33
70127;BME280;57491;42.694;23.314;2024-03-23T12:00:39;94738.13;;;33.95;12.40
70127;BME280;57491;42.694;23.314;2024-03-23T12:03:08;94728.44;;;34.39;12.27
70127;BME280;57491;42.694;23.314;2024-03-23T12:05:37;94723.03;;;34.88;12.18
70127;BME280;57491;42.694;23.314;2024-03-23T12:08:22;94726.06;;;34.74;11.90
70127;BME280;57491;42.694;23.314;2024-03-23T12:10:51;94708.50;;;34.92;11.12
70127;BME280;57491;42.694;23.314;2024-03-23T12:13:18;94711.81;;;35.26;10.95
70127;BME280;57491;42.694;23.314;2024-03-23T12:15:50;94711.06;;;35.85;11.09
70127;BME280;57491;42.694;23.314;2024-03-23T12:18:23;94705.28;;;35.15;10.29
70127;BME280;57491;42.694;23.314;2024-03-23T12:20:51;94701.97;;;35.33;10.72
70127;BME280;57491;42.694;23.314;2024-03-23T12:23:17;94708.59;;;35.64;10.10
70127;BME280;57491;42.694;23.314;2024-03-23T12:25:48;94699.38;;;35.65;10.29
70127;BME280;57491;42.694;23.314;2024-03-23T12:28:15;94687.22;;;36.84;9.74
70127;BME280;57491;42.694;23.314;2024-03-23T12:30:42;94692.31;;;37.43;8.39
70127;BME280;57491;42.694;23.314;2024-03-23T12:33:09;94680.03;;;36.92;7.83
70127;BME280;57491;42.694;23.314;2024-03-23T12:35:38;94679.28;;;36.76;8.53
70127;BME280;57491;42.694;23.314;2024-03-23T12:38:04;94676.22;;;34.84;10.62
70127;BME280;57491;42.694;23.314;2024-03-23T12:40:31;94672.63;;;35.63;10.45
70127;BME280;57491;42.694;23.314;2024-03-23T12:42:58;94665.91;;;36.83;8.55
70127;BME280;57491;42.694;23.314;2024-03-23T12:45:25;94664.75;;;37.03;9.54
70127;BME280;57491;42.694;23.314;2024-03-23T12:47:51;94659.59;;;37.33;8.70
70127;BME280;57491;42.694;23.314;2024-03-23T12:50:19;94666.56;;;37.34;9.58
70127;BME280;57491;42.694;23.314;2024-03-23T12:52:47;94660.38;;;37.14;8.49
70127;BME280;57491;42.694;23.314;2024-03-23T12:55:15;94652.63;;;36.78;7.58
70127;BME280;57491;42.694;23.314;2024-03-23T12:57:41;94642.81;;;35.60;8.33
70127;BME280;57491;42.694;23.314;2024-03-23T13:00:09;94644.13;;;34.82;8.66
70127;BME280;57491;42.694;23.314;2024-03-23T13:02:37;94641.59;;;33.44;8.76
70127;BME280;57491;42.694;23.314;2024-03-23T13:05:06;94638.97;;;31.64;10.59
70127;BME280;57491;42.694;23.314;2024-03-23T13:07:33;94626.69;;;29.47;11.25
70127;BME280;57491;42.694;23.314;2024-03-23T13:10:02;94630.22;;;28.31;12.89
70127;BME280;57491;42.694;23.314;2024-03-23T13:12:29;94625.50;;;27.27;12.52
70127;BME280;57491;42.694;23.314;2024-03-23T13:14:57;94618.31;;;26.58;13.03
70127;BME280;57491;42.694;23.314;2024-03-23T13:17:23;94614.69;;;25.40;13.91
70127;BME280;57491;42.694;23.314;2024-03-23T13:19:51;94616.00;;;24.90;14.81
70127;BME280;57491;42.694;23.314;2024-03-23T13:22:18;94605.75;;;24.29;14.88
70127;BME280;57491;42.694;23.314;2024-03-23T13:24:45;94613.44;;;23.77;14.98
70127;BME280;57491;42.694;23.314;2024-03-23T13:27:13;94597.41;;;23.18;15.88
70127;BME280;57491;42.694;23.314;2024-03-23T13:29:40;94601.69;;;22.78;15.67
70127;BME280;57491;42.694;23.314;2024-03-23T13:32:07;94600.88;;;22.67;16.72
70127;BME280;57491;42.694;23.314;2024-03-23T13:34:34;94604.03;;;22.49;16.45
70127;BME280;57491;42.694;23.314;2024-03-23T13:37:01;94587.56;;;22.22;18.02
70127;BME280;57491;42.694;23.314;2024-03-23T13:39:29;94592.38;;;22.35;17.08
70127;BME280;57491;42.694;23.314;2024-03-23T13:41:56;94586.25;;;22.30;16.89
70127;BME280;57491;42.694;23.314;2024-03-23T13:44:25;94595.47;;;22.07;16.69
70127;BME280;57491;42.694;23.314;2024-03-23T13:46:52;94585.44;;;21.42;17.05
70127;BME280;57491;42.694;23.314;2024-03-23T13:49:25;94570.34;;;21.37;17.51
70127;BME280;57491;42.694;23.314;2024-03-23T13:51:54;94579.25;;;21.21;18.69